Погода Абу-Ушарна неделю

Эль-Гезира, Судан

25 февраля-02 марта
  • 25февраля
    Сегодня
    +25°
    +40°
    Небольшая облачность
    ВремяПогодаТемператураВлажностьДавлениеВетер, м/сВероятность осадков
    02:00Практически безоблачно+29°C33 %724 мм4.8 м/с0 %
    05:00Ясно и безоблачно+28°C35 %724 мм4.3 м/с0 %
    08:00Ясно и безоблачно+30°C38 %725 мм4.6 м/с0 %
    11:00Ясно и безоблачно+36°C23 %726 мм5.3 м/с0 %
    14:00Небольшая облачность+39°C17 %723 мм5.5 м/с0 %
    17:00Облачно с прояснениями+38°C15 %723 мм5.6 м/с0 %
    20:00Небольшая облачность+34°C21 %724 мм4.8 м/с0 %
    23:00Ясно и безоблачно+31°C24 %724 мм5.6 м/с0 %
  • 26февраля
    Понедельник
    +21°
    +39°
    Ясно и безоблачно
    ВремяПогодаТемператураВлажностьДавлениеВетер, м/сВероятность осадков
    02:00Практически безоблачно+28°C29 %723 мм4.7 м/с0 %
    05:00Небольшая облачность+27°C31 %724 мм4.3 м/с0 %
    08:00Ясно и безоблачно+28°C23 %725 мм4.4 м/с0 %
    11:00Ясно и безоблачно+35°C14 %725 мм5.5 м/с0 %
    14:00Ясно и безоблачно+38°C12 %723 мм5.1 м/с0 %
    17:00Ясно и безоблачно+36°C13 %722 мм5.8 м/с0 %
    20:00Ясно и безоблачно+31°C14 %723 мм3.4 м/с0 %
    23:00Ясно и безоблачно+28°C11 %724 мм4.1 м/с0 %
  • 27февраля
    Вторник
    +21°
    +38°
    Ясно и безоблачно
    ВремяПогодаТемператураВлажностьДавлениеВетер, м/сВероятность осадков
    02:00Ясно и безоблачно+24°C16 %723 мм3.4 м/с0 %
    05:00Ясно и безоблачно+23°C22 %723 мм3.2 м/с0 %
    08:00Ясно и безоблачно+25°C18 %725 мм4.2 м/с0 %
    11:00Ясно и безоблачно+34°C10 %725 мм4.9 м/с0 %
    14:00Ясно и безоблачно+37°C5 %723 мм4.1 м/с0 %
    17:00Ясно и безоблачно+36°C5 %722 мм5.0 м/с0 %
    20:00Ясно и безоблачно+30°C8 %723 мм4.3 м/с0 %
    23:00Ясно и безоблачно+27°C12 %724 мм3.9 м/с0 %
  • 28февраля
    Среда
    +21°
    +38°
    Ясно и безоблачно
    ВремяПогодаТемператураВлажностьДавлениеВетер, м/сВероятность осадков
    02:00Ясно и безоблачно+24°C15 %723 мм3.9 м/с0 %
    05:00Ясно и безоблачно+23°C15 %723 мм3.4 м/с0 %
    08:00Ясно и безоблачно+25°C11 %725 мм4.5 м/с0 %
    11:00Ясно и безоблачно+33°C7 %725 мм4.7 м/с0 %
    14:00Ясно и безоблачно+37°C5 %722 мм3.6 м/с0 %
    17:00Ясно и безоблачно+36°C5 %722 мм4.3 м/с0 %
    20:00Ясно и безоблачно+30°C8 %723 мм3.7 м/с0 %
    23:00Ясно и безоблачно+27°C10 %723 мм3.2 м/с0 %
  • 29февраля
    Четверг
    +20°
    +38°
    Ясно и безоблачно
    ВремяПогодаТемператураВлажностьДавлениеВетер, м/сВероятность осадков
    02:00Ясно и безоблачно+24°C12 %722 мм3.2 м/с0 %
    05:00Ясно и безоблачно+22°C15 %722 мм3.5 м/с0 %
    08:00Ясно и безоблачно+25°C13 %724 мм3.3 м/с0 %
    11:00Ясно и безоблачно+34°C11 %724 мм3.6 м/с0 %
    14:00Ясно и безоблачно+37°C6 %722 мм2.7 м/с0 %
    17:00Ясно и безоблачно+36°C7 %722 мм3.4 м/с0 %
    20:00Ясно и безоблачно+30°C9 %722 мм3.6 м/с0 %
    23:00Ясно и безоблачно+26°C11 %723 мм3.2 м/с0 %
Мы используем cookies
Соглашаюсь